Cape Don, Australia
Current Conditions -  °F | °C
As of 4:30 PM on Saturday 29 Nov 2014 (Local Time) from YPDN Reporting Station
Broken Clouds Broken Clouds  
Wind Chill: 86°   Ceiling: 30000
Heat Index: 92°   Visibility: 6mi
Dew Point: 72°   Wind: 8mph
Humidity: 62%   Direction: 320°NW
Pressure: 29.68"   Gusts: NA
Location:  11.32°S, 131.77°E
Report Text: YPDN 290730Z 32007KT 9999 FEW027 BKN300 30/22 Q1005
Loading
Personal Weather Stations






























Interactive Weather Map New forecast layout! Learn more

10-Day Weather Forecast

Advertisements
Track Severe Weather on mobile